Time;durP1;ratioP1;P1;durP2;ratioP2;P2;SDS_P1;SDS_P2;PMS_P1;PMS_P2;Temp;Humidity;BMP_temperature;BMP_pressure;BME280_temperature;BME280_humidity;BME280_pressure;Samples;Min_cycle;Max_cycle;Signal;HPM_P1;HPM_P2
2023/08/13 00:00:16;;;;;;;3.92;1.30;;;19.10;99.90;;;;;;5014637;28;20045;-76
2023/08/13 00:02:45;;;;;;;3.42;2.05;;;19.10;99.90;;;;;;5012786;28;20034;-77
2023/08/13 00:05:11;;;;;;;4.72;2.00;;;19.10;99.90;;;;;;5013664;28;20045;-76
2023/08/13 00:07:37;;;;;;;2.60;1.15;;;19.10;99.90;;;;;;5014017;28;20030;-82
2023/08/13 00:10:04;;;;;;;3.17;1.75;;;19.00;99.90;;;;;;5014904;28;20029;-77
2023/08/13 00:12:30;;;;;;;2.60;1.42;;;19.00;99.90;;;;;;5014556;28;20026;-77
2023/08/13 00:14:56;;;;;;;3.03;1.55;;;18.90;99.90;;;;;;5013965;28;20034;-77
2023/08/13 00:17:23;;;;;;;2.67;1.30;;;18.80;99.90;;;;;;5014187;28;20029;-77
2023/08/13 00:19:49;;;;;;;2.75;1.40;;;18.80;99.90;;;;;;5013128;28;20054;-77
2023/08/13 00:22:16;;;;;;;2.78;1.27;;;18.80;99.90;;;;;;5010769;28;20064;-78
2023/08/13 00:24:42;;;;;;;2.90;1.60;;;18.70;99.90;;;;;;5000913;28;20042;-77
2023/08/13 00:27:08;;;;;;;2.33;1.40;;;18.70;99.90;;;;;;5014364;28;20406;-77
2023/08/13 00:29:37;;;;;;;3.60;1.50;;;18.70;99.90;;;;;;4995587;28;20472;-77
2023/08/13 00:32:04;;;;;;;3.15;1.52;;;18.70;99.90;;;;;;5012973;28;20030;-77
2023/08/13 00:34:30;;;;;;;2.78;1.42;;;18.70;99.90;;;;;;5014339;28;20036;-78
2023/08/13 00:36:56;;;;;;;2.58;1.55;;;18.70;99.90;;;;;;5015711;28;20044;-77
2023/08/13 00:39:22;;;;;;;3.95;1.20;;;18.70;99.90;;;;;;5011046;28;20042;-77
2023/08/13 00:41:49;;;;;;;3.17;1.70;;;18.70;99.90;;;;;;5014297;28;20481;-77
2023/08/13 00:44:15;;;;;;;2.97;1.33;;;18.60;99.90;;;;;;4992797;28;20038;-77
2023/08/13 00:46:44;;;;;;;1.92;1.20;;;18.60;99.90;;;;;;5014071;28;20064;-78
2023/08/13 00:49:11;;;;;;;3.22;1.60;;;18.50;99.90;;;;;;5011018;28;20395;-77
2023/08/13 00:51:37;;;;;;;3.55;1.40;;;18.50;99.90;;;;;;4996238;28;20426;-77
2023/08/13 00:54:07;;;;;;;2.63;1.40;;;18.40;99.90;;;;;;4995735;28;20041;-77
2023/08/13 00:56:35;;;;;;;4.93;1.75;;;18.40;99.90;;;;;;5001192;28;20041;-77
2023/08/13 00:59:03;;;;;;;2.85;1.40;;;18.40;99.90;;;;;;4995058;28;20034;-78
2023/08/13 01:01:29;;;;;;;3.67;2.33;;;18.40;99.90;;;;;;5013599;28;20045;-78
2023/08/13 01:03:55;;;;;;;4.05;1.80;;;18.30;99.90;;;;;;5013480;28;20029;-77
2023/08/13 01:06:43;;;;;;;3.95;1.65;;;18.30;99.90;;;;;;5013654;28;20030;-77
2023/08/13 01:09:37;;;;;;;2.85;1.77;;;18.30;99.90;;;;;;5012744;28;20045;-78
2023/08/13 01:12:22;;;;;;;4.25;2.00;;;18.20;99.90;;;;;;4988518;28;20041;-77
2023/08/13 01:14:58;;;;;;;4.15;2.10;;;18.20;99.90;;;;;;5012750;28;20033;-77
2023/08/13 01:17:25;;;;;;;4.53;2.30;;;18.20;99.90;;;;;;5010412;28;20049;-77
2023/08/13 01:19:52;;;;;;;3.80;2.35;;;18.10;99.90;;;;;;5012682;28;20383;-77
2023/08/13 01:22:26;;;;;;;4.00;2.00;;;18.10;99.90;;;;;;4989606;28;20065;-78
2023/08/13 01:24:53;;;;;;;3.58;2.33;;;18.10;99.90;;;;;;5013124;28;20029;-80
2023/08/13 01:27:42;;;;;;;5.25;2.40;;;18.10;1.00;;;;;;5013235;28;20049;-77
2023/08/13 01:30:20;;;;;;;4.90;2.20;;;18.00;1.00;;;;;;5011340;28;20037;-77
2023/08/13 01:32:56;;;;;;;8.52;2.33;;;18.00;1.00;;;;;;5009023;28;20462;-78
2023/08/13 01:35:24;;;;;;;7.75;2.28;;;18.00;1.00;;;;;;5001397;28;20046;-78
2023/08/13 01:37:52;;;;;;;3.85;2.45;;;18.00;1.00;;;;;;5011916;28;20025;-78
2023/08/13 01:40:18;;;;;;;4.45;2.30;;;18.00;1.00;;;;;;5011775;28;20501;-78
2023/08/13 01:42:44;;;;;;;6.35;3.17;;;17.90;1.00;;;;;;5009640;28;20053;-78
2023/08/13 01:45:10;;;;;;;3.78;2.25;;;17.90;1.00;;;;;;5012535;28;20034;-77
2023/08/13 01:47:37;;;;;;;5.95;2.50;;;17.90;1.00;;;;;;5011487;28;20050;-77
2023/08/13 01:50:03;;;;;;;5.28;2.40;;;17.90;1.00;;;;;;4991570;28;20049;-78
2023/08/13 01:52:29;;;;;;;7.13;3.15;;;17.90;1.00;;;;;;5011114;28;20038;-77
2023/08/13 01:54:58;;;;;;;7.78;2.80;;;17.90;1.00;;;;;;5010712;28;20041;-77
2023/08/13 01:57:24;;;;;;;5.32;2.90;;;17.90;1.00;;;;;;5012234;28;20084;-77
2023/08/13 01:59:50;;;;;;;5.60;3.20;;;17.90;1.00;;;;;;5011498;28;20478;-76
2023/08/13 02:02:16;;;;;;;6.63;3.70;;;17.80;1.00;;;;;;4992346;28;20476;-77
2023/08/13 02:04:42;;;;;;;8.65;2.70;;;17.70;1.00;;;;;;5011334;28;20045;-76
2023/08/13 02:07:09;;;;;;;5.97;2.80;;;17.70;1.00;;;;;;4987668;28;20041;-77
2023/08/13 02:09:35;;;;;;;7.20;3.03;;;17.70;1.00;;;;;;5011669;28;20037;-77
2023/08/13 02:12:01;;;;;;;3.80;2.85;;;17.70;1.00;;;;;;5011746;28;20033;-77
2023/08/13 02:14:27;;;;;;;5.60;3.10;;;17.70;1.00;;;;;;4999045;28;20038;-78
2023/08/13 02:16:53;;;;;;;5.50;2.55;;;17.70;1.00;;;;;;4993071;28;20493;-78
2023/08/13 02:19:19;;;;;;;6.57;2.67;;;17.70;1.00;;;;;;4993464;28;20048;-78
2023/08/13 02:21:46;;;;;;;5.70;2.67;;;17.70;1.00;;;;;;5010440;28;20612;-81
2023/08/13 02:24:12;;;;;;;7.63;2.45;;;17.70;1.00;;;;;;4991274;28;20072;-77
2023/08/13 02:26:38;;;;;;;3.85;2.13;;;17.60;1.00;;;;;;5011639;28;20030;-78
2023/08/13 02:29:04;;;;;;;3.28;1.90;;;17.60;1.00;;;;;;5011039;28;20448;-77
2023/08/13 02:31:30;;;;;;;5.00;2.55;;;17.50;1.00;;;;;;5011495;28;20038;-79
2023/08/13 02:33:56;;;;;;;4.45;2.22;;;17.50;1.00;;;;;;5011203;28;20405;-77
2023/08/13 02:36:22;;;;;;;4.93;2.35;;;17.60;1.00;;;;;;5011256;28;20038;-78
2023/08/13 02:38:48;;;;;;;6.10;3.47;;;17.60;1.00;;;;;;5011094;28;20030;-77
2023/08/13 02:41:15;;;;;;;6.95;2.55;;;17.50;1.00;;;;;;5011080;28;20359;-78
2023/08/13 02:43:52;;;;;;;4.35;1.88;;;17.50;1.00;;;;;;4986549;28;20049;-78
2023/08/13 02:46:24;;;;;;;6.50;2.97;;;17.50;1.00;;;;;;5011345;28;20407;-79
2023/08/13 02:48:54;;;;;;;4.88;2.88;;;17.50;1.00;;;;;;5009115;28;20034;-77
2023/08/13 02:51:20;;;;;;;5.35;3.38;;;17.60;1.00;;;;;;4985793;28;20049;-78
2023/08/13 02:53:47;;;;;;;7.43;2.63;;;17.60;1.00;;;;;;5011485;28;20041;-83
2023/08/13 02:56:13;;;;;;;6.00;3.80;;;17.60;1.00;;;;;;5008165;28;20029;-77
2023/08/13 02:58:42;;;;;;;6.60;2.95;;;17.60;1.00;;;;;;5011704;28;20037;-78
2023/08/13 03:01:10;;;;;;;5.50;3.03;;;17.60;1.00;;;;;;4992575;28;20042;-78
2023/08/13 03:03:36;;;;;;;6.50;3.88;;;17.60;1.00;;;;;;4994683;28;20050;-77
2023/08/13 03:06:02;;;;;;;4.15;2.53;;;17.70;1.00;;;;;;5010849;28;20034;-80
2023/08/13 03:08:29;;;;;;;7.35;3.00;;;17.70;1.00;;;;;;5013277;28;20041;-77
2023/08/13 03:10:55;;;;;;;8.52;3.85;;;17.70;1.00;;;;;;5010777;28;20463;-77
2023/08/13 03:13:21;;;;;;;7.78;3.72;;;17.70;1.00;;;;;;4993919;28;20050;-78
2023/08/13 03:15:48;;;;;;;6.35;3.42;;;17.70;1.00;;;;;;5002760;28;20038;-83
2023/08/13 03:18:14;;;;;;;6.75;3.47;;;17.70;1.00;;;;;;5014572;28;20034;-78
2023/08/13 03:20:45;;;;;;;7.68;4.35;;;17.60;1.00;;;;;;5000702;28;20065;-80
2023/08/13 03:23:11;;;;;;;9.23;3.88;;;17.70;1.00;;;;;;5014032;28;20048;-77
2023/08/13 03:25:40;;;;;;;9.05;3.97;;;17.60;1.00;;;;;;4996255;28;20042;-79
2023/08/13 03:28:07;;;;;;;6.80;3.80;;;17.60;1.00;;;;;;4994673;28;20046;-78
2023/08/13 03:30:34;;;;;;;5.82;3.65;;;17.60;1.00;;;;;;4995117;28;20050;-78
2023/08/13 03:33:00;;;;;;;6.53;3.45;;;17.60;1.00;;;;;;5014101;28;20093;-77
2023/08/13 03:35:27;;;;;;;6.70;3.88;;;17.60;1.00;;;;;;4995284;28;20419;-77
2023/08/13 03:37:53;;;;;;;7.97;4.47;;;17.60;1.00;;;;;;5013961;28;20033;-78
2023/08/13 03:40:21;;;;;;;7.10;3.80;;;17.50;1.00;;;;;;4996056;28;20042;-77
2023/08/13 03:42:47;;;;;;;9.07;4.35;;;17.50;1.00;;;;;;5014691;28;20041;-77
2023/08/13 03:45:13;;;;;;;6.45;3.38;;;17.50;1.00;;;;;;4996008;28;20046;-77
2023/08/13 03:47:39;;;;;;;9.93;3.40;;;17.50;1.00;;;;;;5013272;28;20042;-77
2023/08/13 03:50:06;;;;;;;12.93;3.60;;;17.40;1.00;;;;;;4992477;28;20050;-77
2023/08/13 03:52:32;;;;;;;10.00;3.40;;;17.40;1.00;;;;;;5014268;28;20034;-78
2023/08/13 03:54:58;;;;;;;6.55;3.17;;;17.30;1.00;;;;;;4995912;28;20045;-78
2023/08/13 03:57:24;;;;;;;7.72;3.97;;;17.30;1.00;;;;;;4995657;28;20039;-79
2023/08/13 03:59:50;;;;;;;7.35;4.07;;;17.20;1.00;;;;;;4995602;28;20049;-84
2023/08/13 04:02:17;;;;;;;6.57;4.82;;;17.20;1.00;;;;;;5014001;28;20041;-79
2023/08/13 04:04:44;;;;;;;10.65;4.93;;;17.30;1.00;;;;;;4989304;28;20053;-78
2023/08/13 04:07:15;;;;;;;6.95;4.55;;;17.30;20.20;;;;;;5001611;28;20653;-78
2023/08/13 04:09:41;;;;;;;11.45;5.93;;;17.30;33.70;;;;;;5013599;28;20057;-78
2023/08/13 04:12:07;;;;;;;12.57;5.40;;;17.30;49.40;;;;;;5013395;28;20044;-78
2023/08/13 04:14:33;;;;;;;10.00;5.30;;;17.30;68.10;;;;;;4995290;28;20038;-78
2023/08/13 04:16:59;;;;;;;9.02;5.45;;;17.30;87.20;;;;;;5012547;28;20451;-77
2023/08/13 04:19:26;;;;;;;9.02;5.45;;;17.30;92.80;;;;;;4988203;28;20043;-77
2023/08/13 04:21:52;;;;;;;9.38;5.15;;;17.30;96.00;;;;;;4986246;28;20436;-84
2023/08/13 04:24:20;;;;;;;9.38;5.03;;;17.30;97.90;;;;;;4993576;28;20038;-78
2023/08/13 04:26:46;;;;;;;10.60;5.45;;;17.30;99.90;;;;;;5012977;28;20041;-77
2023/08/13 04:29:15;;;;;;;16.77;5.72;;;17.40;99.90;;;;;;4979157;28;20046;-78
2023/08/13 04:31:41;;;;;;;10.73;7.38;;;17.40;99.90;;;;;;4989063;28;20395;-77
2023/08/13 04:34:08;;;;;;;9.43;5.57;;;17.50;99.90;;;;;;4991090;28;20457;-77
2023/08/13 04:36:36;;;;;;;13.25;7.22;;;17.50;99.90;;;;;;5008570;28;20050;-77
2023/08/13 04:39:06;;;;;;;;;;;17.50;99.90;;;;;;4994188;28;20466;-77
2023/08/13 04:41:32;;;;;;;8.98;6.20;;;17.50;99.90;;;;;;4988727;28;19917;-78
2023/08/13 04:43:58;;;;;;;9.68;6.72;;;17.50;99.90;;;;;;4994605;28;20049;-77
2023/08/13 04:46:24;;;;;;;9.95;6.15;;;17.60;99.90;;;;;;5008610;28;20057;-78
2023/08/13 04:48:56;;;;;;;12.35;8.02;;;17.60;99.90;;;;;;4992009;28;20151;-79
2023/08/13 04:51:25;;;;;;;9.95;6.68;;;17.70;99.90;;;;;;5011965;28;20422;-78
2023/08/13 04:53:52;;;;;;;9.88;6.95;;;17.70;99.90;;;;;;4994362;28;20042;-78
2023/08/13 04:56:20;;;;;;;11.10;6.85;;;17.70;99.90;;;;;;4994384;28;20046;-78
2023/08/13 04:58:46;;;;;;;11.07;7.00;;;17.80;99.90;;;;;;4993040;28;20047;-80
2023/08/13 05:01:13;;;;;;;12.05;7.63;;;17.90;99.90;;;;;;4993567;28;20506;-79
2023/08/13 05:03:41;;;;;;;12.68;8.90;;;17.90;99.90;;;;;;5000871;28;20479;-78
2023/08/13 05:06:07;;;;;;;13.77;8.07;;;18.00;99.90;;;;;;4992263;28;20052;-80
2023/08/13 05:08:33;;;;;;;11.55;7.47;;;18.00;99.90;;;;;;4968830;28;20398;-79
2023/08/13 05:11:00;;;;;;;11.52;8.00;;;18.00;99.90;;;;;;5011524;28;20045;-79
2023/08/13 05:13:26;;;;;;;11.82;7.32;;;18.10;99.90;;;;;;5011486;28;20042;-78
2023/08/13 05:15:52;;;;;;;11.15;7.47;;;18.20;99.90;;;;;;4988712;28;20053;-78
2023/08/13 05:18:19;;;;;;;11.43;7.70;;;18.20;99.90;;;;;;4994088;28;20041;-78
2023/08/13 05:20:46;;;;;;;10.10;6.00;;;18.30;99.90;;;;;;4995192;28;20045;-77
2023/08/13 05:23:13;;;;;;;12.90;6.03;;;18.40;99.90;;;;;;5011916;28;20041;-78
2023/08/13 05:25:39;;;;;;;10.25;5.85;;;18.40;99.90;;;;;;4995964;28;20042;-79
2023/08/13 05:28:07;;;;;;;8.88;6.05;;;18.40;81.30;;;;;;4994214;28;20060;-77
2023/08/13 05:30:35;;;;;;;7.20;4.55;;;18.50;31.60;;;;;;5005807;28;20057;-78
2023/08/13 05:33:02;;;;;;;8.65;4.68;;;18.60;1.00;;;;;;4994031;28;20038;-78
2023/08/13 05:35:29;;;;;;;7.15;4.50;;;18.70;1.00;;;;;;5014669;28;20105;-78
2023/08/13 05:37:57;;;;;;;8.48;4.20;;;18.70;1.00;;;;;;4994170;28;20056;-82
2023/08/13 05:40:23;;;;;;;8.63;4.65;;;18.80;1.00;;;;;;4995325;28;20038;-78
2023/08/13 05:42:51;;;;;;;6.47;4.60;;;18.90;1.00;;;;;;5009243;28;20042;-79
2023/08/13 05:45:18;;;;;;;7.97;3.95;;;19.00;99.90;;;;;;5009964;28;20049;-78
2023/08/13 05:47:44;;;;;;;4.93;3.47;;;19.10;99.90;;;;;;4984254;28;20042;-78
2023/08/13 05:50:11;;;;;;;6.80;3.30;;;19.20;99.90;;;;;;4994779;28;20042;-78
2023/08/13 05:52:37;;;;;;;7.32;4.03;;;19.20;99.90;;;;;;4977349;28;20045;-78
2023/08/13 05:55:04;;;;;;;11.40;3.42;;;19.40;99.90;;;;;;5011352;28;20037;-78
2023/08/13 05:57:30;;;;;;;5.38;2.65;;;19.40;99.90;;;;;;4994072;28;20029;-78
2023/08/13 06:00:09;;;;;;;4.18;2.50;;;19.50;99.90;;;;;;5052682;28;20791;-78
2023/08/13 06:02:38;;;;;;;7.63;5.10;;;19.70;99.90;;;;;;5068413;28;20049;-78
2023/08/13 06:05:09;;;;;;;6.07;2.80;;;19.90;99.90;;;;;;5055001;28;20041;-78
2023/08/13 06:07:35;;;;;;;5.20;3.15;;;20.00;99.90;;;;;;5044890;28;20037;-78
2023/08/13 06:10:02;;;;;;;4.75;2.67;;;20.10;99.90;;;;;;5052647;28;20029;-79
2023/08/13 06:12:28;;;;;;;4.90;2.80;;;20.20;99.90;;;;;;5045336;28;20032;-78
2023/08/13 06:14:54;;;;;;;4.93;2.53;;;20.40;99.90;;;;;;5042072;28;20378;-78
2023/08/13 06:17:21;;;;;;;4.80;3.17;;;20.50;99.90;;;;;;5041191;28;20029;-79
2023/08/13 06:19:47;;;;;;;5.18;3.15;;;20.50;99.90;;;;;;5046805;28;20048;-78
2023/08/13 06:22:14;;;;;;;5.47;3.72;;;20.60;99.90;;;;;;5042824;28;20393;-79
2023/08/13 06:24:40;;;;;;;5.55;3.17;;;20.50;99.90;;;;;;5052134;28;20063;-79
2023/08/13 06:27:06;;;;;;;6.03;4.28;;;20.60;99.90;;;;;;5054047;28;20026;-78
2023/08/13 06:29:32;;;;;;;5.65;3.85;;;20.70;99.90;;;;;;5048846;28;20033;-79
2023/08/13 06:31:59;;;;;;;7.03;4.32;;;20.70;91.70;;;;;;5045378;28;20032;-79
2023/08/13 06:34:25;;;;;;;4.97;3.70;;;20.70;89.70;;;;;;5043508;28;20044;-79
2023/08/13 06:36:53;;;;;;;9.38;5.55;;;21.00;86.30;;;;;;5049941;28;20468;-79
2023/08/13 06:39:21;;;;;;;5.13;3.85;;;21.50;45.30;;;;;;5039921;28;20037;-79
2023/08/13 06:41:47;;;;;;;5.55;3.22;;;22.00;1.00;;;;;;5037673;28;20385;-79
2023/08/13 06:44:20;;;;;;;7.13;2.83;;;22.10;1.00;;;;;;5047677;28;20037;-79
2023/08/13 06:46:47;;;;;;;4.10;2.63;;;22.10;1.00;;;;;;5056436;28;20052;-79
2023/08/13 06:49:14;;;;;;;3.72;2.40;;;22.40;1.00;;;;;;5053924;28;20043;-79
2023/08/13 06:51:40;;;;;;;4.28;2.00;;;22.70;1.00;;;;;;5048634;28;20032;-79
2023/08/13 06:54:07;;;;;;;5.28;2.70;;;23.20;99.90;;;;;;5052509;28;20078;-80
2023/08/13 06:56:35;;;;;;;3.65;2.28;;;23.20;99.90;;;;;;5046051;28;20374;-80
2023/08/13 06:59:02;;;;;;;5.68;2.22;;;23.00;99.90;;;;;;5035565;28;20061;-87
2023/08/13 07:01:29;;;;;;;4.65;2.15;;;22.80;99.90;;;;;;5043566;28;20036;-79
2023/08/13 07:03:56;;;;;;;4.25;2.80;;;22.50;99.90;;;;;;5044639;28;20092;-79
2023/08/13 07:06:23;;;;;;;3.72;2.72;;;22.80;99.90;;;;;;5046376;28;20109;-79
2023/08/13 07:08:49;;;;;;;2.58;1.98;;;23.20;99.90;;;;;;5048597;28;20371;-78
2023/08/13 07:11:15;;;;;;;5.35;2.65;;;23.30;99.90;;;;;;5045456;28;20044;-79
2023/08/13 07:13:41;;;;;;;6.22;2.53;;;23.10;99.90;;;;;;5036285;28;20033;-77
2023/08/13 07:16:13;;;;;;;3.65;2.42;;;23.00;99.90;;;;;;5028679;28;20055;-78
2023/08/13 07:18:42;;;;;;;3.97;2.50;;;23.00;99.90;;;;;;5030520;28;20052;-80
2023/08/13 07:21:08;;;;;;;7.55;3.53;;;23.20;99.90;;;;;;5028908;28;20042;-80
2023/08/13 07:23:35;;;;;;;4.13;2.28;;;23.50;99.90;;;;;;5023915;28;20034;-79
2023/08/13 07:26:01;;;;;;;3.28;1.42;;;23.50;99.90;;;;;;5018508;28;20032;-79
2023/08/13 07:28:28;;;;;;;6.10;2.67;;;23.70;99.90;;;;;;5042385;28;20037;-79
2023/08/13 07:30:54;;;;;;;4.63;2.15;;;23.90;99.90;;;;;;5038450;28;20383;-78
2023/08/13 07:33:20;;;;;;;2.90;1.92;;;23.90;99.90;;;;;;5027490;28;20143;-80
2023/08/13 07:35:46;;;;;;;2.92;1.90;;;23.80;99.90;;;;;;5038712;28;20032;-79
2023/08/13 07:38:13;;;;;;;2.95;2.00;;;23.60;99.90;;;;;;5036011;28;20048;-78
2023/08/13 07:40:40;;;;;;;3.92;2.03;;;23.50;99.90;;;;;;5034170;28;20044;-78
2023/08/13 07:43:06;;;;;;;2.53;1.70;;;23.50;99.90;;;;;;5038624;28;20042;-79
2023/08/13 07:45:32;;;;;;;3.72;2.35;;;23.70;94.70;;;;;;5031127;28;20036;-79
2023/08/13 07:47:58;;;;;;;3.65;1.85;;;24.00;91.00;;;;;;5034838;28;20029;-79
2023/08/13 07:50:24;;;;;;;6.05;2.50;;;24.40;30.10;;;;;;5053012;28;20033;-80
2023/08/13 07:52:51;;;;;;;4.88;2.42;;;24.90;18.90;;;;;;5052234;28;20037;-79
2023/08/13 07:55:17;;;;;;;4.72;2.38;;;24.80;1.00;;;;;;5036192;28;20040;-79
2023/08/13 07:57:43;;;;;;;3.53;2.28;;;24.80;1.00;;;;;;5028145;28;20025;-79
2023/08/13 08:00:10;;;;;;;4.07;2.60;;;24.90;1.00;;;;;;5019163;28;20064;-80
2023/08/13 08:02:39;;;;;;;2.63;1.63;;;25.20;1.00;;;;;;5045439;28;20148;-80
2023/08/13 08:05:07;;;;;;;3.25;2.00;;;25.10;1.00;;;;;;5033425;28;20041;-86
2023/08/13 08:07:33;;;;;;;3.67;1.80;;;25.30;99.90;;;;;;5031282;28;20036;-80
2023/08/13 08:10:00;;;;;;;4.30;1.73;;;25.60;99.90;;;;;;5029465;28;20030;-80
2023/08/13 08:12:26;;;;;;;3.40;2.05;;;25.70;99.90;;;;;;5041360;28;20349;-80
2023/08/13 08:14:53;;;;;;;6.60;2.10;;;25.50;99.90;;;;;;5024470;28;20041;-81
2023/08/13 08:17:22;;;;;;;3.00;1.55;;;25.30;99.90;;;;;;5035387;28;20025;-80
2023/08/13 08:19:48;;;;;;;2.33;1.42;;;25.80;99.90;;;;;;5043082;28;20051;-79
2023/08/13 08:22:15;;;;;;;6.70;1.50;;;26.30;99.90;;;;;;5031988;28;20037;-81
2023/08/13 08:24:42;;;;;;;3.03;1.05;;;26.50;99.90;;;;;;5047888;28;20025;-82
2023/08/13 08:27:09;;;;;;;4.53;2.10;;;26.10;99.90;;;;;;5034535;28;20036;-79
2023/08/13 08:29:36;;;;;;;3.28;1.42;;;26.30;99.90;;;;;;5032137;28;20057;-79
2023/08/13 08:32:02;;;;;;;2.90;1.38;;;26.20;99.90;;;;;;5019906;28;20033;-79
2023/08/13 08:34:30;;;;;;;2.50;1.23;;;26.10;99.90;;;;;;5034436;28;20339;-79
2023/08/13 08:36:56;;;;;;;2.42;1.38;;;26.60;99.90;;;;;;5033201;28;20042;-78
2023/08/13 08:39:22;;;;;;;3.60;0.98;;;26.90;92.40;;;;;;5039455;28;20083;-79
2023/08/13 08:41:50;;;;;;;2.80;0.93;;;27.00;95.10;;;;;;5026395;28;20033;-78
2023/08/13 08:44:23;;;;;;;6.47;1.10;;;26.90;93.60;;;;;;5033105;28;20033;-78
2023/08/13 08:46:50;;;;;;;2.33;1.02;;;27.50;32.20;;;;;;5032833;28;20036;-78
2023/08/13 08:49:18;;;;;;;4.10;1.48;;;27.90;19.00;;;;;;5028000;28;20473;-78
2023/08/13 08:51:45;;;;;;;3.67;1.00;;;27.60;2.40;;;;;;5020771;28;20038;-80
2023/08/13 08:54:12;;;;;;;3.10;1.27;;;27.50;14.50;;;;;;5033446;28;20033;-78
2023/08/13 08:56:38;;;;;;;5.38;1.25;;;27.20;14.40;;;;;;5038724;28;20041;-78
2023/08/13 08:59:05;;;;;;;5.30;1.50;;;26.70;19.60;;;;;;5033305;28;20058;-77
2023/08/13 09:01:32;;;;;;;6.38;2.58;;;26.30;13.20;;;;;;5037680;28;20021;-77
2023/08/13 09:03:58;;;;;;;4.07;0.95;;;26.40;22.80;;;;;;5032703;28;20044;-79
2023/08/13 09:07:01;;;;;;;2.45;1.10;;;26.40;11.30;;;;;;5027972;28;20044;-78
2023/08/13 09:09:28;;;;;;;3.88;1.17;;;26.40;35.70;;;;;;5025533;28;20048;-79
2023/08/13 09:11:55;;;;;;;2.95;1.17;;;26.60;13.20;;;;;;5033680;28;20331;-79
2023/08/13 09:14:23;;;;;;;3.00;0.85;;;26.50;1.00;;;;;;5020984;28;20418;-79
2023/08/13 09:16:54;;;;;;;3.08;0.60;;;26.10;1.00;;;;;;5022800;28;20041;-78
2023/08/13 09:19:24;;;;;;;2.15;0.82;;;26.20;1.00;;;;;;5045195;28;20136;-79
2023/08/13 09:21:51;;;;;;;3.28;0.90;;;26.10;1.00;;;;;;5035419;28;20033;-79
2023/08/13 09:24:18;;;;;;;2.10;0.90;;;26.20;1.00;;;;;;5038149;28;20032;-80
2023/08/13 09:26:45;;;;;;;1.80;0.90;;;26.10;1.00;;;;;;5031881;28;20040;-79
2023/08/13 09:29:12;;;;;;;4.45;1.17;;;26.20;1.00;;;;;;5034670;28;20042;-80
2023/08/13 09:31:38;;;;;;;2.88;1.30;;;26.60;1.00;;;;;;5027663;28;20044;-79
2023/08/13 09:34:05;;;;;;;3.22;1.40;;;27.00;1.00;;;;;;5018345;28;20097;-78
2023/08/13 09:36:32;;;;;;;3.40;1.00;;;27.00;1.00;;;;;;5068263;28;20044;-79
2023/08/13 09:38:58;;;;;;;2.13;1.05;;;27.40;1.00;;;;;;5026350;28;20474;-79
2023/08/13 09:41:27;;;;;;;2.35;0.77;;;27.30;1.00;;;;;;5034718;28;20048;-78
2023/08/13 09:43:56;;;;;;;3.38;1.15;;;26.60;1.00;;;;;;5033491;28;20048;-79
2023/08/13 09:46:27;;;;;;;3.75;1.15;;;26.20;1.00;;;;;;5031883;28;20046;-79
2023/08/13 09:48:55;;;;;;;2.70;1.40;;;26.00;1.00;;;;;;5032177;28;20041;-79
2023/08/13 09:51:29;;;;;;;2.42;0.98;;;26.20;1.00;;;;;;5022830;28;20390;-79
2023/08/13 09:54:03;;;;;;;2.20;0.93;;;26.30;1.00;;;;;;5029192;28;20050;-79
2023/08/13 09:56:30;;;;;;;3.63;1.23;;;26.20;1.00;;;;;;5027242;28;20034;-79
2023/08/13 09:58:57;;;;;;;2.97;0.95;;;26.30;1.00;;;;;;5017035;28;20058;-79
2023/08/13 10:01:24;;;;;;;3.20;1.35;;;26.20;1.00;;;;;;5035160;28;20041;-79
2023/08/13 10:03:51;;;;;;;7.05;1.30;;;26.50;1.00;;;;;;5041301;28;20035;-79
2023/08/13 10:06:19;;;;;;;2.28;0.77;;;26.50;1.00;;;;;;5033486;28;20040;-79
2023/08/13 10:08:45;;;;;;;3.33;1.10;;;26.50;1.00;;;;;;5024643;28;20030;-80
2023/08/13 10:11:13;;;;;;;4.00;0.85;;;26.90;1.00;;;;;;5042832;28;20493;-80
2023/08/13 10:13:39;;;;;;;3.28;1.10;;;27.20;1.00;;;;;;5034391;28;20493;-80
2023/08/13 10:16:07;;;;;;;2.88;1.08;;;27.10;1.00;;;;;;5024219;28;20034;-80
2023/08/13 10:18:34;;;;;;;5.47;3.08;;;27.10;1.00;;;;;;5024249;28;20378;-79
2023/08/13 10:21:00;;;;;;;5.13;1.83;;;27.20;1.00;;;;;;5028915;28;20033;-80
2023/08/13 10:23:27;;;;;;;4.53;1.10;;;26.90;1.00;;;;;;5031600;28;20112;-80
2023/08/13 10:25:53;;;;;;;3.30;1.33;;;26.80;1.00;;;;;;5024835;28;20045;-80
2023/08/13 10:28:21;;;;;;;2.15;0.85;;;27.20;1.00;;;;;;5042053;28;20037;-80
2023/08/13 10:30:47;;;;;;;3.03;1.10;;;27.00;1.00;;;;;;5035001;28;20459;-80
2023/08/13 10:33:14;;;;;;;4.13;1.13;;;26.80;1.00;;;;;;5024660;28;20033;-84
2023/08/13 10:35:42;;;;;;;3.53;1.35;;;27.00;1.00;;;;;;5033199;28;20060;-80
2023/08/13 10:38:08;;;;;;;2.33;1.17;;;27.00;1.00;;;;;;5033605;28;20057;-80
2023/08/13 10:40:36;;;;;;;5.50;1.42;;;27.10;1.00;;;;;;5021200;28;20399;-80
2023/08/13 10:43:03;;;;;;;5.35;1.20;;;27.20;1.00;;;;;;5016021;28;20026;-80
2023/08/13 10:45:35;;;;;;;2.35;1.10;;;27.00;1.00;;;;;;5046013;28;20384;-80
2023/08/13 10:48:04;;;;;;;2.67;0.80;;;27.00;1.00;;;;;;5042565;28;20474;-81
2023/08/13 10:50:35;;;;;;;4.25;0.65;;;27.00;1.00;;;;;;5032512;28;20044;-79
2023/08/13 10:53:07;;;;;;;1.70;0.80;;;26.60;1.00;;;;;;5038969;28;20044;-80
2023/08/13 10:55:46;;;;;;;2.83;1.08;;;26.20;1.00;;;;;;5038294;28;20034;-80
2023/08/13 10:58:31;;;;;;;2.53;1.13;;;26.20;1.00;;;;;;5029172;28;20053;-82
2023/08/13 11:01:23;;;;;;;4.65;1.42;;;26.70;1.00;;;;;;5055947;28;20482;-81
2023/08/13 11:03:54;;;;;;;1.60;0.80;;;27.40;1.00;;;;;;5032221;28;20449;-80
2023/08/13 11:06:22;;;;;;;1.67;0.80;;;27.20;1.00;;;;;;5032900;28;20045;-80
2023/08/13 11:08:48;;;;;;;3.13;0.80;;;27.10;1.00;;;;;;5033962;28;20048;-81
2023/08/13 11:11:19;;;;;;;4.90;2.20;;;27.50;1.00;;;;;;5041970;28;20037;-81
2023/08/13 11:13:47;;;;;;;3.13;1.05;;;27.10;1.00;;;;;;5042493;28;20037;-80
2023/08/13 11:16:13;;;;;;;2.28;0.88;;;26.70;1.00;;;;;;5030626;28;20033;-81
2023/08/13 11:18:40;;;;;;;2.40;1.20;;;26.30;1.00;;;;;;5036051;28;20036;-81
2023/08/13 11:21:06;;;;;;;2.67;1.20;;;26.60;1.00;;;;;;5041694;28;20044;-80
2023/08/13 11:23:32;;;;;;;3.05;1.33;;;26.90;1.00;;;;;;5032585;28;20037;-80
2023/08/13 11:25:59;;;;;;;3.00;1.73;;;27.10;1.00;;;;;;5025797;28;20037;-80
2023/08/13 11:28:26;;;;;;;3.83;1.30;;;27.30;1.00;;;;;;5042253;28;20143;-81
2023/08/13 11:30:56;;;;;;;2.70;1.10;;;27.50;1.00;;;;;;5043129;28;20046;-80
2023/08/13 11:33:23;;;;;;;5.78;1.17;;;28.00;1.00;;;;;;5033366;28;20045;-81
2023/08/13 11:35:50;;;;;;;2.92;1.23;;;28.20;1.00;;;;;;5031945;28;20034;-80
2023/08/13 11:38:18;;;;;;;2.90;0.88;;;28.30;1.00;;;;;;5037289;28;20033;-81
2023/08/13 11:40:44;;;;;;;4.60;0.90;;;27.80;1.00;;;;;;5028748;28;20056;-80
2023/08/13 11:43:12;;;;;;;3.20;1.30;;;27.70;1.00;;;;;;5022543;28;20053;-81
2023/08/13 11:45:39;;;;;;;3.03;1.10;;;27.60;1.00;;;;;;5036868;28;20240;-81
2023/08/13 11:48:15;;;;;;;3.05;1.08;;;27.20;1.00;;;;;;5027159;28;20034;-81
2023/08/13 11:50:47;;;;;;;2.45;1.15;;;27.30;1.00;;;;;;5036169;28;20381;-82
2023/08/13 11:53:15;;;;;;;1.95;0.80;;;27.70;1.00;;;;;;5044440;28;20406;-81
2023/08/13 11:55:44;;;;;;;3.47;1.60;;;28.20;1.00;;;;;;5035607;28;20021;-80
2023/08/13 11:58:10;;;;;;;1.95;0.90;;;28.40;1.00;;;;;;5034501;28;20645;-81
2023/08/13 12:00:37;;;;;;;8.85;3.80;;;28.30;1.00;;;;;;5031217;28;20060;-80
2023/08/13 12:03:03;;;;;;;2.45;0.93;;;28.30;1.00;;;;;;5035349;28;20026;-81
2023/08/13 12:05:32;;;;;;;4.13;1.25;;;28.00;1.00;;;;;;5030272;28;20053;-81
2023/08/13 12:08:00;;;;;;;3.80;1.35;;;28.00;1.00;;;;;;5023177;28;20489;-80
2023/08/13 12:10:26;;;;;;;2.22;1.10;;;28.10;1.00;;;;;;5029671;28;20041;-81
2023/08/13 12:12:53;;;;;;;5.35;1.75;;;28.00;1.00;;;;;;5040546;28;20025;-80
2023/08/13 12:15:23;;;;;;;3.22;1.00;;;28.00;1.00;;;;;;5026895;28;20034;-80
2023/08/13 12:17:54;;;;;;;2.50;1.05;;;27.80;1.00;;;;;;5030254;28;20029;-81
2023/08/13 12:20:22;;;;;;;1.65;0.82;;;27.90;1.00;;;;;;5040208;28;20382;-84
2023/08/13 12:22:49;;;;;;;2.83;1.38;;;27.90;1.00;;;;;;5033019;28;20045;-80
2023/08/13 12:25:15;;;;;;;2.90;1.65;;;27.40;1.00;;;;;;5024132;28;20057;-81
2023/08/13 12:27:44;;;;;;;7.40;1.80;;;27.40;1.00;;;;;;5031087;28;20033;-80
2023/08/13 12:30:11;;;;;;;2.92;1.67;;;27.00;1.00;;;;;;5027652;28;20049;-76
2023/08/13 12:32:38;;;;;;;1.98;1.15;;;26.70;1.00;;;;;;5022933;28;20022;-81
2023/08/13 12:35:04;;;;;;;2.92;1.10;;;26.60;1.00;;;;;;5034446;28;20025;-80
2023/08/13 12:37:30;;;;;;;2.50;0.93;;;27.00;1.00;;;;;;5040137;28;20040;-81
2023/08/13 12:39:57;;;;;;;2.47;1.33;;;27.40;1.00;;;;;;5024473;28;20042;-80
2023/08/13 12:42:23;;;;;;;2.05;0.95;;;27.60;1.00;;;;;;5027982;28;20398;-80
2023/08/13 12:44:50;;;;;;;4.90;0.80;;;27.30;1.00;;;;;;5032343;28;20036;-81
2023/08/13 12:47:16;;;;;;;3.75;1.42;;;27.20;1.00;;;;;;5034210;28;20115;-81
2023/08/13 12:49:42;;;;;;;3.47;1.25;;;27.50;1.00;;;;;;5031352;28;20230;-81
2023/08/13 12:52:11;;;;;;;2.75;1.00;;;27.60;1.00;;;;;;5017726;28;20030;-80
2023/08/13 12:54:37;;;;;;;1.83;0.80;;;27.60;1.00;;;;;;5024654;28;20029;-81